Terminal Aerodrome Forecast
Issued by NWS

Current Version | Previous Version | Graphics & Text | Print | Product List | Glossary On
Versions: 1 2 3 4 5 6 7 8 9 10 11 12 13 14 15 16 17 18 19 20 21 22 23 24 25 26 27 28 29 30 31 32 33 34
000
FTUS41 KPBZ 300538
TAFHLG
TAF
KHLG 300538Z 3006/3106 00000KT P6SM BKN250
     FM300900 14003KT 4SM BR VCSH BKN090
     FM301300 17003KT P6SM VCSH BKN035
     FM302000 23004KT P6SM -SHRA VCTS BKN050CB
     FM302300 23004KT P6SM VCSH BKN200=

USA.gov is the U.S. government's official web portal to all federal, state and local government web resources and services.